Terminal Aerodrome Forecast
Issued by NWS

Current Version | Previous Version | Text Only | Print | Product List | Glossary On
Versions: 1 2 3 4 5 6 7 8 9 10 11 12 13 14 15 16 17 18 19 20 21 22 23 24 25 26 27 28 29
000
FTUS45 KGJT 260547
TAFMTJ
TAF
KMTJ 260547Z 2606/2706 12007KT P6SM VCSH BKN080
     FM261100 16005KT P6SM BKN120
     FM261800 01003KT P6SM VCTS BKN150CB
     FM262200 16006KT P6SM VCTS BKN150CB
     FM270400 15005KT P6SM SCT120=

USA.gov is the U.S. government's official web portal to all federal, state and local government web resources and services.